createdAt,value
2023-05-06T00:03:27.518Z,10.32
2023-05-06T00:07:36.701Z,10.31
2023-05-06T00:11:46.310Z,10.30
2023-05-06T00:15:55.698Z,10.09
2023-05-06T00:20:05.202Z,9.65
2023-05-06T00:24:14.810Z,9.34
2023-05-06T00:28:16.992Z,9.11
2023-05-06T00:32:26.491Z,8.90
2023-05-06T00:36:35.915Z,8.71
2023-05-06T00:40:36.541Z,8.60
2023-05-06T00:44:46.134Z,8.47
2023-05-06T01:04:19.678Z,8.04
2023-05-06T01:08:47.246Z,7.99
2023-05-06T01:20:16.607Z,7.86
2023-05-06T01:24:32.311Z,7.79
2023-05-06T01:28:40.962Z,7.73
2023-05-06T01:32:48.640Z,7.72
2023-05-06T01:37:03.930Z,7.72
2023-05-06T01:41:12.174Z,7.70
2023-05-06T01:45:21.602Z,7.68
2023-05-06T01:49:25.061Z,7.65
2023-05-06T01:53:17.242Z,7.62
2023-05-06T01:57:17.993Z,7.58
2023-05-06T02:01:18.104Z,7.52
2023-05-06T02:05:13.939Z,7.50
2023-05-06T02:09:23.404Z,7.48
2023-05-06T02:13:25.172Z,7.46
2023-05-06T02:17:34.582Z,7.41
2023-05-06T02:21:44.176Z,7.38
2023-05-06T02:25:54.548Z,7.35
2023-05-06T02:30:02.789Z,7.34
2023-05-06T02:33:34.739Z,7.33
2023-05-06T02:37:24.187Z,7.31
2023-05-06T02:41:24.066Z,7.26
2023-05-06T02:45:33.695Z,7.22
2023-05-06T02:49:43.559Z,7.22
2023-05-06T02:53:53.410Z,7.19
2023-05-06T02:58:02.853Z,7.14
2023-05-06T03:02:12.354Z,7.12
2023-05-06T03:06:21.906Z,7.10
2023-05-06T03:10:30.342Z,7.08
2023-05-06T03:14:05.513Z,7.07
2023-05-06T03:18:14.854Z,7.04
2023-05-06T03:21:55.594Z,7.03
2023-05-06T03:25:47.028Z,7.01
2023-05-06T03:29:41.031Z,7.00
2023-05-06T03:33:50.095Z,6.99
2023-05-06T03:37:31.866Z,6.97
2023-05-06T03:41:41.532Z,6.96
2023-05-06T03:45:51.037Z,6.94
2023-05-06T03:50:00.502Z,6.94
2023-05-06T03:54:09.979Z,6.93
2023-05-06T03:58:19.618Z,6.89
2023-05-06T04:02:22.776Z,6.91
2023-05-06T04:06:32.422Z,6.91
2023-05-06T04:10:17.461Z,6.91
2023-05-06T04:14:19.549Z,6.90
2023-05-06T04:18:28.830Z,6.91
2023-05-06T04:21:58.871Z,6.95
2023-05-06T04:26:04.922Z,6.98
2023-05-06T04:30:06.995Z,7.05
2023-05-06T04:34:16.650Z,7.06
2023-05-06T04:38:25.847Z,7.06
2023-05-06T04:42:21.038Z,7.09
2023-05-06T04:46:21.607Z,7.12
2023-05-06T04:50:21.095Z,7.12
2023-05-06T04:54:30.786Z,7.12
2023-05-06T04:58:20.382Z,7.12
2023-05-06T05:02:30.122Z,7.12
2023-05-06T05:06:39.687Z,7.15
2023-05-06T05:10:32.727Z,7.19
2023-05-06T05:14:26.561Z,7.18
2023-05-06T05:17:49.140Z,7.19
2023-05-06T05:21:32.885Z,7.18
2023-05-06T05:25:42.551Z,7.19
2023-05-06T05:29:40.996Z,7.20
2023-05-06T05:33:51.173Z,7.23
2023-05-06T05:38:00.764Z,7.27
2023-05-06T05:42:10.385Z,7.29
2023-05-06T05:46:19.923Z,7.33
2023-05-06T05:50:06.216Z,7.37
2023-05-06T05:53:48.119Z,7.42
2023-05-06T05:57:33.292Z,7.45
2023-05-06T06:01:42.654Z,7.47
2023-05-06T06:05:35.528Z,7.49
2023-05-06T06:09:13.353Z,7.50
2023-05-06T06:12:28.416Z,7.55
2023-05-06T06:16:25.155Z,7.59
2023-05-06T06:20:34.666Z,7.63
2023-05-06T06:24:29.489Z,7.68
2023-05-06T06:28:27.985Z,7.73
2023-05-06T06:31:49.202Z,7.78
2023-05-06T06:35:22.928Z,7.81
2023-05-06T06:38:45.853Z,7.84
2023-05-06T06:42:55.602Z,7.87
2023-05-06T06:46:56.758Z,7.90
2023-05-06T06:51:06.564Z,7.94
2023-05-06T06:55:05.249Z,7.99
2023-05-06T06:58:58.019Z,8.03
2023-05-06T07:02:54.736Z,8.07
2023-05-06T07:06:51.275Z,8.14
2023-05-06T07:09:57.949Z,8.19
2023-05-06T07:13:51.796Z,8.23
2023-05-06T07:17:41.409Z,8.28
2023-05-06T07:21:09.591Z,8.34
2023-05-06T07:24:34.685Z,8.38
2023-05-06T07:28:40.286Z,8.42
2023-05-06T07:32:29.590Z,8.44
2023-05-06T07:36:01.488Z,8.46
2023-05-06T07:39:13.069Z,8.45
2023-05-06T07:43:05.701Z,8.45
2023-05-06T07:47:00.355Z,8.46
2023-05-06T07:50:32.488Z,8.48
2023-05-06T07:54:09.902Z,8.48
2023-05-06T07:57:58.170Z,8.45
2023-05-06T08:01:57.521Z,8.43
2023-05-06T08:05:41.701Z,8.43
2023-05-06T08:09:22.374Z,8.42
2023-05-06T08:12:46.637Z,8.44
2023-05-06T08:16:56.094Z,8.44
2023-05-06T08:21:05.642Z,8.46
2023-05-06T08:24:37.783Z,8.49
2023-05-06T08:28:47.267Z,8.53
2023-05-06T08:32:42.209Z,8.54
2023-05-06T08:36:34.159Z,8.55
2023-05-06T08:40:38.061Z,8.55
2023-05-06T08:44:16.736Z,8.57
2023-05-06T08:48:26.158Z,8.59
2023-05-06T08:52:35.318Z,8.62
2023-05-06T08:56:28.514Z,8.65
2023-05-06T09:00:01.273Z,8.66
2023-05-06T09:04:03.133Z,8.67
2023-05-06T09:07:18.718Z,8.72
2023-05-06T09:11:14.080Z,8.77
2023-05-06T09:14:57.144Z,8.83
2023-05-06T09:18:38.075Z,8.89
2023-05-06T09:22:16.640Z,8.94
2023-05-06T09:26:16.175Z,8.99
2023-05-06T09:30:06.067Z,9.02
2023-05-06T09:33:53.052Z,9.09
2023-05-06T09:36:58.882Z,9.15
2023-05-06T09:40:29.998Z,9.22
2023-05-06T09:44:24.212Z,9.27
2023-05-06T09:47:58.461Z,9.30
2023-05-06T09:51:39.947Z,9.34
2023-05-06T09:55:31.729Z,9.38
2023-05-06T09:58:49.974Z,9.39
2023-05-06T10:02:25.887Z,9.39
2023-05-06T10:06:12.317Z,9.39
2023-05-06T10:09:53.909Z,9.40
2023-05-06T10:13:56.572Z,9.41
2023-05-06T10:17:16.901Z,9.43
2023-05-06T10:21:19.185Z,9.46
2023-05-06T10:25:02.525Z,9.46
2023-05-06T10:29:01.808Z,9.48
2023-05-06T10:32:40.850Z,9.48
2023-05-06T10:36:52.783Z,9.47
2023-05-06T10:40:36.936Z,9.45
2023-05-06T10:44:06.383Z,9.47
2023-05-06T10:48:02.896Z,9.48
2023-05-06T10:51:42.857Z,9.46
2023-05-06T10:55:37.249Z,9.48
2023-05-06T10:59:12.540Z,9.47
2023-05-06T11:03:04.648Z,9.47
2023-05-06T11:07:22.003Z,9.47
2023-05-06T11:11:34.510Z,9.47
2023-05-06T11:14:41.919Z,9.47
2023-05-06T11:18:29.259Z,9.49
2023-05-06T11:22:19.300Z,9.54
2023-05-06T11:25:20.604Z,9.59
2023-05-06T11:29:20.523Z,9.65
2023-05-06T11:32:48.535Z,9.70
2023-05-06T11:36:37.199Z,9.74
2023-05-06T11:40:28.003Z,9.76
2023-05-06T11:43:50.113Z,9.82
2023-05-06T11:47:28.798Z,9.88
2023-05-06T11:51:23.800Z,9.92
2023-05-06T11:55:13.091Z,9.95
2023-05-06T11:59:10.763Z,9.98
2023-05-06T12:03:17.205Z,10.00
2023-05-06T12:07:35.736Z,10.05
2023-05-06T12:11:45.189Z,10.10
2023-05-06T12:15:07.970Z,10.16
2023-05-06T12:18:50.444Z,10.22
2023-05-06T12:22:23.376Z,10.24
2023-05-06T12:26:34.324Z,10.27
2023-05-06T12:29:56.082Z,10.30
2023-05-06T12:33:50.239Z,10.34
2023-05-06T12:38:08.626Z,10.38
2023-05-06T12:42:23.865Z,10.43
2023-05-06T12:46:45.570Z,10.48
2023-05-06T12:50:27.195Z,10.51
2023-05-06T12:54:13.618Z,10.50
2023-05-06T12:57:58.001Z,10.53
2023-05-06T13:01:32.198Z,10.56
2023-05-06T13:05:32.976Z,10.57
2023-05-06T13:09:15.438Z,10.57
2023-05-06T13:13:09.994Z,10.56
2023-05-06T13:16:13.148Z,10.59
2023-05-06T13:19:32.502Z,10.64
2023-05-06T13:23:01.683Z,10.67
2023-05-06T13:26:44.295Z,10.69
2023-05-06T13:30:15.391Z,10.71
2023-05-06T13:34:02.912Z,10.76
2023-05-06T13:37:24.744Z,10.77
2023-05-06T13:41:34.213Z,10.79
2023-05-06T13:45:26.871Z,10.81
2023-05-06T13:49:20.605Z,10.83
2023-05-06T13:52:45.819Z,10.86
2023-05-06T13:56:16.921Z,10.86
2023-05-06T14:00:22.531Z,10.88
2023-05-06T14:04:08.257Z,10.94
2023-05-06T14:08:18.110Z,11.01
2023-05-06T14:12:20.072Z,11.16
2023-05-06T14:16:29.583Z,11.30
2023-05-06T14:20:06.771Z,11.43
2023-05-06T14:24:17.440Z,11.55
2023-05-06T14:28:26.931Z,11.68
2023-05-06T14:32:35.069Z,11.81
2023-05-06T14:36:20.785Z,11.99
2023-05-06T14:40:03.495Z,12.15
2023-05-06T14:43:59.613Z,12.41
2023-05-06T14:47:59.076Z,12.68
2023-05-06T14:51:32.833Z,12.91
2023-05-06T14:55:27.556Z,13.13
2023-05-06T14:59:36.963Z,13.32
2023-05-06T15:03:30.483Z,13.52
2023-05-06T15:06:53.707Z,13.61
2023-05-06T15:10:55.732Z,13.57
2023-05-06T15:14:24.552Z,13.55
2023-05-06T15:18:03.841Z,13.67
2023-05-06T15:21:33.088Z,13.82
2023-05-06T15:25:35.051Z,13.85
2023-05-06T15:30:47.624Z,13.80
2023-05-06T15:33:46.763Z,13.78
2023-05-06T15:36:58.927Z,13.77
2023-05-06T15:42:06.789Z,13.82
2023-05-06T15:44:40.513Z,13.92
2023-05-06T15:47:55.444Z,14.01
2023-05-06T15:50:39.609Z,14.07
2023-05-06T15:54:41.202Z,14.21
2023-05-06T15:57:36.574Z,14.42
2023-05-06T16:00:50.212Z,14.57
2023-05-06T16:04:31.791Z,14.84
2023-05-06T16:08:14.284Z,15.09
2023-05-06T16:12:20.453Z,15.28
2023-05-06T16:15:52.819Z,15.40
2023-05-06T16:19:29.501Z,15.55
2023-05-06T16:23:13.674Z,15.69
2023-05-06T16:26:19.366Z,15.71
2023-05-06T16:29:34.370Z,15.70
2023-05-06T16:33:16.083Z,15.64
2023-05-06T16:36:41.573Z,15.58
2023-05-06T16:40:29.966Z,15.58
2023-05-06T16:44:26.167Z,15.38
2023-05-06T16:48:26.363Z,15.33
2023-05-06T16:52:30.053Z,15.31
2023-05-06T16:56:28.232Z,15.27
2023-05-06T17:00:16.677Z,15.16
2023-05-06T17:03:48.979Z,15.04
2023-05-06T17:07:06.055Z,14.95
2023-05-06T17:11:15.455Z,14.90
2023-05-06T17:15:25.206Z,14.77
2023-05-06T17:19:16.030Z,14.61
2023-05-06T17:23:00.241Z,14.46
2023-05-06T17:26:02.895Z,14.35
2023-05-06T17:29:44.193Z,14.20
2023-05-06T17:33:32.166Z,14.07
2023-05-06T17:37:05.266Z,13.85
2023-05-06T17:40:34.480Z,13.67
2023-05-06T17:44:42.826Z,13.40
2023-05-06T17:48:53.203Z,13.13
2023-05-06T17:53:02.327Z,12.89
2023-05-06T17:56:53.060Z,12.71
2023-05-06T18:00:18.658Z,12.50
2023-05-06T18:04:28.249Z,12.27
2023-05-06T18:08:36.244Z,11.99
2023-05-06T18:12:45.091Z,11.77
2023-05-06T18:16:29.909Z,11.65
2023-05-06T18:20:39.780Z,11.55
2023-05-06T18:24:49.399Z,11.36
2023-05-06T18:29:00.381Z,11.17
2023-05-06T18:32:38.544Z,11.09
2023-05-06T18:36:39.078Z,10.94
2023-05-06T18:40:48.736Z,10.84
2023-05-06T18:44:58.362Z,10.75
2023-05-06T18:49:07.994Z,10.71
2023-05-06T18:53:17.899Z,10.66
2023-05-06T18:57:27.498Z,10.59
2023-05-06T19:01:37.179Z,10.50
2023-05-06T19:05:37.712Z,10.48
2023-05-06T19:09:37.237Z,10.43
2023-05-06T19:13:47.171Z,10.39
2023-05-06T19:17:57.142Z,10.33
2023-05-06T19:22:07.040Z,10.31
2023-05-06T19:26:15.566Z,10.28
2023-05-06T19:30:25.013Z,10.25
2023-05-06T19:34:11.353Z,10.17
2023-05-06T19:38:13.387Z,10.10
2023-05-06T19:42:23.324Z,10.06
2023-05-06T19:46:33.120Z,10.00
2023-05-06T19:50:23.147Z,9.98
2023-05-06T19:54:32.922Z,9.98
2023-05-06T19:58:42.799Z,10.14
2023-05-06T20:02:52.527Z,10.49
2023-05-06T20:07:02.075Z,10.71
2023-05-06T20:11:11.468Z,10.86
2023-05-06T20:13:43.613Z,10.95
2023-05-06T20:17:17.635Z,10.99
2023-05-06T20:21:27.362Z,10.99
2023-05-06T20:25:05.523Z,10.98
2023-05-06T20:29:15.160Z,10.83
2023-05-06T20:33:24.659Z,10.46
2023-05-06T20:37:28.116Z,10.18
2023-05-06T20:41:17.626Z,9.98
2023-05-06T20:44:48.582Z,9.97
2023-05-06T20:48:32.394Z,10.18
2023-05-06T20:52:41.734Z,10.42
2023-05-06T20:56:53.039Z,10.63
2023-05-06T21:01:03.040Z,10.77
2023-05-06T21:05:01.095Z,10.89
2023-05-06T21:09:10.546Z,10.99
2023-05-06T21:13:18.951Z,11.08
2023-05-06T21:17:29.035Z,11.16
2023-05-06T21:21:38.370Z,11.25
2023-05-06T21:25:19.122Z,11.34
2023-05-06T21:29:28.556Z,11.39
2023-05-06T21:33:38.187Z,11.45
2023-05-06T21:37:47.638Z,11.52
2023-05-06T21:41:57.121Z,11.54
2023-05-06T21:45:46.738Z,11.58
2023-05-06T21:49:56.351Z,11.59
2023-05-06T21:54:05.847Z,11.57
2023-05-06T21:58:15.840Z,11.60
2023-05-06T22:01:56.047Z,11.65
2023-05-06T22:06:05.742Z,11.68
2023-05-06T22:10:17.174Z,11.69
2023-05-06T22:14:16.150Z,11.56
2023-05-06T22:18:26.522Z,11.22
2023-05-06T22:22:36.123Z,10.96
2023-05-06T22:26:45.592Z,10.76
2023-05-06T22:30:55.057Z,10.55
2023-05-06T22:34:58.461Z,10.39
2023-05-06T22:39:04.766Z,10.25
2023-05-06T22:43:14.171Z,10.13
2023-05-06T22:46:48.010Z,10.02
2023-05-06T22:50:22.114Z,9.95
2023-05-06T22:54:24.210Z,9.85
2023-05-06T22:58:33.443Z,9.76
2023-05-06T23:02:35.506Z,9.84
2023-05-06T23:06:45.064Z,10.17
2023-05-06T23:10:54.957Z,10.39
2023-05-06T23:15:03.444Z,10.55
2023-05-06T23:19:13.021Z,10.68
2023-05-06T23:23:22.466Z,10.79
2023-05-06T23:27:32.047Z,10.89
2023-05-06T23:31:27.662Z,10.98
2023-05-06T23:35:37.373Z,11.06
2023-05-06T23:39:29.527Z,11.09
2023-05-06T23:43:39.131Z,11.13
2023-05-06T23:47:48.693Z,11.16
2023-05-06T23:51:58.249Z,11.03
2023-05-06T23:56:08.255Z,10.70
